| Date | Time | Temp. (oF) | Dew Point (oF) | Rel. Hum. (%) | Press. (in.) | Wind Dir. | Wind Speed (mph) | Hourly Rainfall (in.) |
|
|---|---|---|---|---|---|---|---|---|---|
| 1 | 02/09 | 00:00 | 36 | 33 | 91 | 30.31 | NNE | 2 | 0.00 |
| 2 | 02/08 | 23:00 | 37 | 34 | 90 | 30.31 | NNE | 4 | 0.00 |
| 3 | 02/08 | 22:00 | 36 | 33 | 89 | 30.33 | SSE | 2 | 0.00 |
| 4 | 02/08 | 21:00 | 37 | 33 | 86 | 30.34 | ENE | 2 | 0.00 |
| 5 | 02/08 | 20:00 | 38 | 32 | 82 | 30.35 | ENE | 3 | 0.00 |
| 6 | 02/08 | 19:00 | 39 | 32 | 76 | 30.36 | SSE | 4 | 0.00 |
| 7 | 02/08 | 18:00 | 41 | 31 | 69 | 30.37 | E | 3 | 0.00 |
| 8 | 02/08 | 17:00 | 43 | 32 | 65 | 30.37 | NNW | 3 | 0.00 |
| 9 | 02/08 | 16:00 | 44 | 32 | 63 | 30.38 | SSE | 3 | 0.00 |
| 10 | 02/08 | 15:00 | 43 | 30 | 62 | 30.37 | SSE | 4 | 0.00 |
| 11 | 02/08 | 14:00 | 43 | 30 | 61 | 30.40 | ESE | 2 | 0.00 |
| 12 | 02/08 | 13:00 | 42 | 29 | 62 | 30.43 | SE | 3 | 0.00 |
| 13 | 02/08 | 12:00 | 40 | 28 | 62 | 30.47 | ESE | 7 | 0.00 |
| 14 | 02/08 | 11:00 | 36 | 27 | 71 | 30.51 | SSE | 4 | 0.00 |
| 15 | 02/08 | 10:00 | 32 | 27 | 82 | 30.54 | E | 1 | 0.00 |
| 16 | 02/08 | 09:00 | 29 | 26 | 89 | 30.55 | NE | 2 | 0.00 |
| 17 | 02/08 | 08:00 | 27 | 24 | 92 | 30.54 | NNE | 2 | 0.00 |
| 18 | 02/08 | 07:00 | 24 | 22 | 95 | 30.53 | WNW | 0 | 0.00 |
| 19 | 02/08 | 06:00 | 25 | 23 | 93 | 30.49 | NNW | 0 | 0.00 |
| 20 | 02/08 | 05:00 | 24 | 22 | 92 | 30.49 | NW | 0 | 0.00 |
| 21 | 02/08 | 04:00 | 25 | 23 | 93 | 30.49 | S | 0 | 0.00 |
| 22 | 02/08 | 03:00 | 26 | 23 | 89 | 30.50 | S | 0 | 0.00 |
| 23 | 02/08 | 02:00 | 28 | 24 | 88 | 30.50 | S | 0 | 0.00 |
| 24 | 02/08 | 01:00 | 28 | 25 | 89 | 30.49 | S | 0 | 0.00 |